createdAt,value
2023-01-27T00:01:05.878Z,100751.00
2023-01-27T00:03:33.610Z,100748.66
2023-01-27T00:06:01.681Z,100734.59
2023-01-27T00:08:29.852Z,100738.38
2023-01-27T00:11:20.531Z,100743.63
2023-01-27T00:13:48.704Z,100744.72
2023-01-27T00:16:16.792Z,100741.88
2023-01-27T00:18:44.977Z,100741.13
2023-01-27T00:21:38.906Z,100742.59
2023-01-27T00:24:25.604Z,100745.91
2023-01-27T00:26:53.639Z,100742.63
2023-01-27T00:29:21.197Z,100736.75
2023-01-27T00:32:07.789Z,100737.97
2023-01-27T00:34:35.834Z,100739.69
2023-01-27T00:37:05.643Z,100735.19
2023-01-27T00:39:34.556Z,100738.72
2023-01-27T00:42:02.330Z,100742.53
2023-01-27T00:44:29.844Z,100740.06
2023-01-27T00:46:57.664Z,100741.19
2023-01-27T00:49:25.551Z,100738.22
2023-01-27T00:51:53.015Z,100737.88
2023-01-27T00:54:21.266Z,100740.91
2023-01-27T00:56:49.402Z,100741.19
2023-01-27T00:59:17.321Z,100749.94
2023-01-27T01:01:46.081Z,100752.69
2023-01-27T01:04:14.000Z,100743.44
2023-01-27T01:06:42.121Z,100750.88
2023-01-27T01:09:10.538Z,100752.13
2023-01-27T01:11:38.092Z,100754.72
2023-01-27T01:14:06.081Z,100755.16
2023-01-27T01:16:33.673Z,100749.81
2023-01-27T01:19:02.727Z,100755.03
2023-01-27T01:21:30.485Z,100756.81
2023-01-27T01:23:59.236Z,100748.84
2023-01-27T01:26:27.285Z,100752.03
2023-01-27T01:28:55.128Z,100754.94
2023-01-27T01:31:22.631Z,100755.47
2023-01-27T01:33:50.614Z,100748.84
2023-01-27T01:36:20.958Z,100749.97
2023-01-27T01:38:48.726Z,100751.59
2023-01-27T01:41:20.207Z,100750.25
2023-01-27T01:43:51.761Z,100753.56
2023-01-27T01:46:20.279Z,100753.72
2023-01-27T01:48:49.411Z,100758.06
2023-01-27T01:51:20.160Z,100747.00
2023-01-27T01:53:48.703Z,100749.94
2023-01-27T01:56:34.888Z,100745.13
2023-01-27T01:59:07.292Z,100752.13
2023-01-27T02:01:34.870Z,100745.72
2023-01-27T02:04:07.045Z,100753.44
2023-01-27T02:06:49.979Z,100760.34
2023-01-27T02:09:20.370Z,100752.03
2023-01-27T02:11:48.101Z,100751.56
2023-01-27T02:14:17.722Z,100749.50
2023-01-27T02:16:45.945Z,100752.53
2023-01-27T02:19:38.273Z,100751.06
2023-01-27T02:22:11.169Z,100751.56
2023-01-27T02:24:47.277Z,100748.91
2023-01-27T02:27:14.937Z,100757.72
2023-01-27T02:29:42.556Z,100750.34
2023-01-27T02:32:23.453Z,100748.25
2023-01-27T02:34:53.993Z,100746.28
2023-01-27T02:37:23.916Z,100748.41
2023-01-27T02:39:54.115Z,100746.50
2023-01-27T02:42:22.075Z,100750.84
2023-01-27T02:44:50.856Z,100747.31
2023-01-27T02:47:18.453Z,100747.97
2023-01-27T02:49:46.305Z,100744.44
2023-01-27T02:52:14.191Z,100744.44
2023-01-27T02:54:41.952Z,100742.22
2023-01-27T02:57:09.559Z,100744.72
2023-01-27T02:59:48.311Z,100740.78
2023-01-27T03:02:22.881Z,100744.31
2023-01-27T03:04:50.922Z,100739.75
2023-01-27T03:07:20.994Z,100739.88
2023-01-27T03:09:49.191Z,100747.16
2023-01-27T03:12:22.788Z,100733.63
2023-01-27T03:15:11.798Z,100747.41
2023-01-27T03:17:58.267Z,100735.94
2023-01-27T03:20:26.551Z,100740.50
2023-01-27T03:22:54.444Z,100740.41
2023-01-27T03:25:24.476Z,100740.25
2023-01-27T03:27:53.465Z,100733.91
2023-01-27T03:30:29.433Z,100734.47
2023-01-27T03:33:08.819Z,100738.19
2023-01-27T03:35:49.806Z,100727.31
2023-01-27T03:38:41.102Z,100727.75
2023-01-27T03:41:27.407Z,100728.88
2023-01-27T03:44:13.723Z,100734.66
2023-01-27T03:46:41.518Z,100727.44
2023-01-27T03:49:10.090Z,100736.59
2023-01-27T03:51:37.586Z,100731.16
2023-01-27T03:54:05.189Z,100734.56
2023-01-27T03:56:32.973Z,100736.88
2023-01-27T03:59:00.676Z,100731.53
2023-01-27T04:01:29.028Z,100733.34
2023-01-27T04:04:15.088Z,100738.13
2023-01-27T04:06:58.252Z,100738.13
2023-01-27T04:09:32.043Z,100737.00
2023-01-27T04:12:01.245Z,100735.31
2023-01-27T04:14:32.846Z,100743.94
2023-01-27T04:17:04.269Z,100739.19
2023-01-27T04:19:32.904Z,100736.41
2023-01-27T04:22:01.900Z,100737.75
2023-01-27T04:24:30.443Z,100738.59
2023-01-27T04:27:00.659Z,100735.97
2023-01-27T04:29:30.545Z,100739.69
2023-01-27T04:31:58.542Z,100732.28
2023-01-27T04:34:27.620Z,100741.09
2023-01-27T04:36:56.271Z,100729.69
2023-01-27T04:39:25.986Z,100735.72
2023-01-27T04:41:53.651Z,100731.44
2023-01-27T04:44:21.650Z,100734.88
2023-01-27T04:46:50.045Z,100745.59
2023-01-27T04:49:19.152Z,100747.41
2023-01-27T04:51:47.469Z,100737.72
2023-01-27T04:54:16.324Z,100740.09
2023-01-27T04:56:56.708Z,100730.97
2023-01-27T04:59:25.397Z,100735.88
2023-01-27T05:01:53.059Z,100750.75
2023-01-27T05:04:21.228Z,100753.22
2023-01-27T05:06:49.064Z,100747.00
2023-01-27T05:09:17.482Z,100749.16
2023-01-27T05:11:44.973Z,100751.50
2023-01-27T05:14:13.991Z,100754.03
2023-01-27T05:16:41.975Z,100755.78
2023-01-27T05:19:09.979Z,100756.13
2023-01-27T05:21:37.536Z,100763.88
2023-01-27T05:24:05.294Z,100757.13
2023-01-27T05:26:33.261Z,100757.19
2023-01-27T05:29:00.873Z,100764.22
2023-01-27T05:31:31.802Z,100764.59
2023-01-27T05:34:00.770Z,100766.28
2023-01-27T05:36:29.955Z,100770.19
2023-01-27T05:38:58.937Z,100769.03
2023-01-27T05:41:28.386Z,100771.81
2023-01-27T05:43:56.057Z,100775.66
2023-01-27T05:46:30.021Z,100776.19
2023-01-27T05:49:05.222Z,100779.53
2023-01-27T05:51:36.165Z,100775.91
2023-01-27T05:54:04.213Z,100781.28
2023-01-27T05:56:32.417Z,100783.56
2023-01-27T05:59:00.648Z,100790.72
2023-01-27T06:01:34.215Z,100798.94
2023-01-27T06:04:02.061Z,100797.25
2023-01-27T06:06:31.968Z,100797.06
2023-01-27T06:09:00.360Z,100798.34
2023-01-27T06:11:28.150Z,100791.50
2023-01-27T06:13:55.718Z,100797.34
2023-01-27T06:16:23.982Z,100798.72
2023-01-27T06:18:51.809Z,100793.59
2023-01-27T06:21:20.768Z,100797.63
2023-01-27T06:23:48.802Z,100796.25
2023-01-27T06:26:18.532Z,100802.16
2023-01-27T06:28:46.324Z,100797.75
2023-01-27T06:31:16.406Z,100802.31
2023-01-27T06:33:46.207Z,100806.75
2023-01-27T06:36:16.996Z,100807.91
2023-01-27T06:38:45.736Z,100808.09
2023-01-27T06:41:13.688Z,100810.75
2023-01-27T06:43:42.475Z,100814.84
2023-01-27T06:46:10.392Z,100814.69
2023-01-27T06:48:38.145Z,100820.59
2023-01-27T06:51:05.888Z,100813.47
2023-01-27T06:53:34.913Z,100815.09
2023-01-27T06:56:02.624Z,100818.78
2023-01-27T06:58:31.026Z,100815.28
2023-01-27T07:00:59.203Z,100816.25
2023-01-27T07:03:26.898Z,100818.19
2023-01-27T07:05:54.533Z,100825.25
2023-01-27T07:08:22.035Z,100824.25
2023-01-27T07:10:49.747Z,100823.81
2023-01-27T07:13:18.848Z,100821.72
2023-01-27T07:15:46.888Z,100831.50
2023-01-27T07:18:14.713Z,100822.97
2023-01-27T07:20:42.763Z,100833.25
2023-01-27T07:23:11.248Z,100839.44
2023-01-27T07:25:39.578Z,100828.41
2023-01-27T07:28:07.705Z,100834.31
2023-01-27T07:30:35.546Z,100837.75
2023-01-27T07:33:20.916Z,100834.66
2023-01-27T07:35:50.019Z,100840.88
2023-01-27T07:38:18.529Z,100844.22
2023-01-27T07:40:46.080Z,100834.81
2023-01-27T07:43:13.856Z,100835.66
2023-01-27T07:45:41.697Z,100847.09
2023-01-27T07:48:09.650Z,100845.66
2023-01-27T07:50:39.971Z,100851.09
2023-01-27T07:53:07.719Z,100847.94
2023-01-27T07:55:35.423Z,100847.25
2023-01-27T07:58:03.475Z,100851.56
2023-01-27T08:00:31.990Z,100850.50
2023-01-27T08:03:01.338Z,100851.72
2023-01-27T08:05:32.259Z,100847.97
2023-01-27T08:08:03.895Z,100845.63
2023-01-27T08:10:32.715Z,100846.09
2023-01-27T08:13:00.332Z,100848.31
2023-01-27T08:15:28.028Z,100853.59
2023-01-27T08:17:59.505Z,100849.91
2023-01-27T08:20:28.101Z,100863.41
2023-01-27T08:22:56.593Z,100857.72
2023-01-27T08:25:25.458Z,100856.03
2023-01-27T08:27:54.772Z,100863.75
2023-01-27T08:30:23.508Z,100865.72
2023-01-27T08:32:51.018Z,100862.56
2023-01-27T08:35:18.662Z,100863.63
2023-01-27T08:37:48.778Z,100863.50
2023-01-27T08:40:17.075Z,100859.41
2023-01-27T08:42:44.664Z,100860.75
2023-01-27T08:45:12.640Z,100863.25
2023-01-27T08:47:40.314Z,100865.19
2023-01-27T08:50:08.928Z,100872.28
2023-01-27T08:52:36.542Z,100869.69
2023-01-27T08:55:04.485Z,100871.59
2023-01-27T08:57:32.754Z,100872.38
2023-01-27T09:00:00.649Z,100866.06
2023-01-27T09:02:28.662Z,100870.88
2023-01-27T09:04:56.588Z,100869.53
2023-01-27T09:07:24.656Z,100863.03
2023-01-27T09:10:01.044Z,100873.94
2023-01-27T09:12:35.904Z,100868.47
2023-01-27T09:15:03.978Z,100873.97
2023-01-27T09:17:32.065Z,100873.75
2023-01-27T09:19:59.699Z,100873.44
2023-01-27T09:22:27.724Z,100875.28
2023-01-27T09:24:55.393Z,100884.69
2023-01-27T09:27:38.111Z,100880.13
2023-01-27T09:30:06.822Z,100888.47
2023-01-27T09:32:34.308Z,100889.34
2023-01-27T09:35:02.362Z,100888.44
2023-01-27T09:37:32.877Z,100894.63
2023-01-27T09:40:04.205Z,100898.47
2023-01-27T09:42:46.949Z,100899.06
2023-01-27T09:45:20.708Z,100899.47
2023-01-27T09:48:27.075Z,100901.94
2023-01-27T09:51:21.979Z,100905.06
2023-01-27T09:54:15.053Z,100904.69
2023-01-27T09:56:49.233Z,100908.53
2023-01-27T09:59:43.205Z,100901.66
2023-01-27T10:02:41.568Z,100908.25
2023-01-27T10:05:27.589Z,100909.97
2023-01-27T10:08:32.916Z,100908.13
2023-01-27T10:11:06.795Z,100903.78
2023-01-27T10:13:42.896Z,100903.28
2023-01-27T10:16:13.823Z,100898.69
2023-01-27T10:18:53.510Z,100899.31
2023-01-27T10:22:02.552Z,100904.00
2023-01-27T10:25:37.924Z,100901.53
2023-01-27T10:28:12.683Z,100904.22
2023-01-27T10:31:04.912Z,100895.91
2023-01-27T10:33:51.571Z,100894.63
2023-01-27T10:36:32.383Z,100895.56
2023-01-27T10:39:18.421Z,100895.69
2023-01-27T10:42:17.884Z,100893.44
2023-01-27T10:45:04.119Z,100893.38
2023-01-27T10:47:56.474Z,100892.59
2023-01-27T10:50:50.832Z,100885.69
2023-01-27T10:53:31.137Z,100882.75
2023-01-27T10:56:04.336Z,100887.69
2023-01-27T10:58:42.907Z,100886.34
2023-01-27T11:01:21.425Z,100883.00
2023-01-27T11:04:30.982Z,100880.38
2023-01-27T11:06:59.729Z,100872.19
2023-01-27T11:09:37.528Z,100866.13
2023-01-27T11:12:13.619Z,100867.53
2023-01-27T11:14:47.759Z,100863.72
2023-01-27T11:17:32.384Z,100865.72
2023-01-27T11:20:18.478Z,100867.13
2023-01-27T11:23:05.523Z,100867.69
2023-01-27T11:25:48.518Z,100861.56
2023-01-27T11:28:39.066Z,100845.50
2023-01-27T11:31:54.781Z,100851.97
2023-01-27T11:34:43.931Z,100838.00
2023-01-27T11:37:21.181Z,100838.59
2023-01-27T11:39:49.234Z,100836.09
2023-01-27T11:42:17.703Z,100836.50
2023-01-27T11:44:46.171Z,100832.59
2023-01-27T11:47:27.712Z,100833.34
2023-01-27T11:49:57.755Z,100823.44
2023-01-27T11:52:29.129Z,100825.63
2023-01-27T11:54:57.151Z,100822.34
2023-01-27T11:57:27.565Z,100817.28
2023-01-27T12:00:07.487Z,100814.88
2023-01-27T12:03:07.749Z,100813.50
2023-01-27T12:05:41.721Z,100808.59
2023-01-27T12:08:09.496Z,100815.09
2023-01-27T12:10:42.227Z,100807.81
2023-01-27T12:13:15.651Z,100802.75
2023-01-27T12:16:05.385Z,100802.56
2023-01-27T12:18:35.593Z,100798.31
2023-01-27T12:21:06.722Z,100791.13
2023-01-27T12:23:40.699Z,100792.22
2023-01-27T12:26:11.966Z,100796.97
2023-01-27T12:28:49.809Z,100788.41
2023-01-27T12:31:29.987Z,100777.75
2023-01-27T12:34:02.748Z,100770.13
2023-01-27T12:36:38.836Z,100774.78
2023-01-27T12:39:07.800Z,100773.31
2023-01-27T12:41:37.822Z,100769.22
2023-01-27T12:44:17.638Z,100767.13
2023-01-27T12:47:03.796Z,100775.38
2023-01-27T12:49:43.493Z,100756.34
2023-01-27T12:52:20.164Z,100762.19
2023-01-27T12:54:48.284Z,100759.69
2023-01-27T12:57:19.924Z,100759.38
2023-01-27T12:59:54.947Z,100752.66
2023-01-27T13:02:30.697Z,100751.75
2023-01-27T13:05:02.434Z,100745.94
2023-01-27T13:07:44.086Z,100744.94
2023-01-27T13:10:22.053Z,100750.69
2023-01-27T13:12:55.137Z,100744.84
2023-01-27T13:15:25.238Z,100741.22
2023-01-27T13:17:58.657Z,100742.50
2023-01-27T13:20:31.000Z,100745.78
2023-01-27T13:23:08.052Z,100740.25
2023-01-27T13:26:04.894Z,100742.75
2023-01-27T13:28:51.700Z,100743.06
2023-01-27T13:31:43.276Z,100742.88
2023-01-27T13:34:40.657Z,100737.91
2023-01-27T13:37:40.256Z,100742.59
2023-01-27T13:40:16.972Z,100736.06
2023-01-27T13:43:01.544Z,100742.72
2023-01-27T13:45:57.309Z,100725.63
2023-01-27T13:48:32.281Z,100735.38
2023-01-27T13:51:14.189Z,100732.47
2023-01-27T13:53:42.153Z,100732.78
2023-01-27T13:56:21.705Z,100725.84
2023-01-27T13:59:24.164Z,100739.28
2023-01-27T14:02:04.217Z,100737.44
2023-01-27T14:04:59.406Z,100728.53
2023-01-27T14:07:37.700Z,100735.38
2023-01-27T14:10:08.067Z,100727.59
2023-01-27T14:12:54.950Z,100738.53
2023-01-27T14:15:22.454Z,100734.50
2023-01-27T14:17:57.441Z,100727.63
2023-01-27T14:20:55.843Z,100726.84
2023-01-27T14:24:01.083Z,100730.81
2023-01-27T14:26:31.752Z,100736.72
2023-01-27T14:29:23.778Z,100744.44
2023-01-27T14:32:30.318Z,100733.50
2023-01-27T14:35:28.631Z,100747.00
2023-01-27T14:38:26.125Z,100745.69
2023-01-27T14:41:14.645Z,100747.38
2023-01-27T14:43:45.749Z,100756.03
2023-01-27T14:46:31.873Z,100753.50
2023-01-27T14:49:08.713Z,100756.84
2023-01-27T14:52:02.869Z,100757.69
2023-01-27T14:54:52.782Z,100761.06
2023-01-27T14:57:34.632Z,100777.00
2023-01-27T15:00:19.795Z,100772.78
2023-01-27T15:03:21.610Z,100774.13
2023-01-27T15:06:07.907Z,100776.19
2023-01-27T15:08:56.801Z,100777.53
2023-01-27T15:11:51.929Z,100781.31
2023-01-27T15:14:38.390Z,100783.81
2023-01-27T15:17:32.597Z,100782.25
2023-01-27T15:20:53.132Z,100782.81
2023-01-27T15:23:35.676Z,100787.09
2023-01-27T15:26:06.751Z,100780.19
2023-01-27T15:28:38.956Z,100775.47
2023-01-27T15:31:09.665Z,100780.66
2023-01-27T15:34:15.733Z,100775.03
2023-01-27T15:37:11.757Z,100779.69
2023-01-27T15:40:03.938Z,100784.97
2023-01-27T15:42:52.429Z,100786.97
2023-01-27T15:45:26.606Z,100793.88
2023-01-27T15:48:00.943Z,100789.50
2023-01-27T15:50:35.763Z,100794.94
2023-01-27T15:53:16.027Z,100791.13
2023-01-27T15:55:53.546Z,100805.59
2023-01-27T15:58:37.924Z,100799.38
2023-01-27T16:01:09.962Z,100797.44
2023-01-27T16:03:43.992Z,100802.59
2023-01-27T16:06:23.415Z,100811.13
2023-01-27T16:08:53.601Z,100817.69
2023-01-27T16:11:23.297Z,100820.84
2023-01-27T16:13:52.281Z,100821.44
2023-01-27T16:16:19.840Z,100827.22
2023-01-27T16:19:09.820Z,100825.50
2023-01-27T16:21:49.657Z,100830.56
2023-01-27T16:24:49.142Z,100834.50
2023-01-27T16:27:45.388Z,100832.50
2023-01-27T16:30:26.559Z,100837.19
2023-01-27T16:33:07.558Z,100829.31
2023-01-27T16:35:47.618Z,100837.03
2023-01-27T16:38:31.501Z,100838.97
2023-01-27T16:41:09.576Z,100843.66
2023-01-27T16:44:20.881Z,100843.03
2023-01-27T16:46:52.323Z,100844.94
2023-01-27T16:49:24.702Z,100845.91
2023-01-27T16:51:58.182Z,100849.50
2023-01-27T16:54:34.974Z,100853.09
2023-01-27T16:57:05.683Z,100861.56
2023-01-27T16:59:38.777Z,100853.13
2023-01-27T17:02:18.958Z,100858.94
2023-01-27T17:04:54.437Z,100862.31
2023-01-27T17:07:22.482Z,100874.00
2023-01-27T17:09:54.973Z,100870.00
2023-01-27T17:12:55.511Z,100869.59
2023-01-27T17:15:31.265Z,100863.38
2023-01-27T17:17:59.088Z,100871.53
2023-01-27T17:20:32.163Z,100868.75
2023-01-27T17:23:02.842Z,100876.59
2023-01-27T17:25:34.634Z,100882.78
2023-01-27T17:28:07.419Z,100886.88
2023-01-27T17:30:39.864Z,100891.06
2023-01-27T17:33:15.265Z,100889.59
2023-01-27T17:35:51.297Z,100894.81
2023-01-27T17:38:24.310Z,100894.88
2023-01-27T17:40:54.450Z,100900.34
2023-01-27T17:43:31.975Z,100908.09
2023-01-27T17:46:05.814Z,100905.97
2023-01-27T17:48:35.867Z,100905.13
2023-01-27T17:51:05.661Z,100916.25
2023-01-27T17:53:38.862Z,100906.16
2023-01-27T17:56:40.582Z,100910.34
2023-01-27T17:59:18.285Z,100910.97
2023-01-27T18:01:48.897Z,100919.38
2023-01-27T18:04:17.563Z,100915.47
2023-01-27T18:06:45.415Z,100929.94
2023-01-27T18:09:18.246Z,100929.94
2023-01-27T18:11:58.344Z,100933.88
2023-01-27T18:14:26.486Z,100936.75
2023-01-27T18:17:03.365Z,100940.38
2023-01-27T18:19:31.579Z,100944.53
2023-01-27T18:22:13.515Z,100944.66
2023-01-27T18:24:52.609Z,100955.75
2023-01-27T18:27:28.979Z,100954.84
2023-01-27T18:30:19.173Z,100955.06
2023-01-27T18:32:50.729Z,100958.41
2023-01-27T18:35:30.329Z,100963.97
2023-01-27T18:38:03.969Z,100973.97
2023-01-27T18:40:37.204Z,100971.81
2023-01-27T18:43:05.821Z,100978.38
2023-01-27T18:45:33.552Z,100976.69
2023-01-27T18:48:03.634Z,100980.41
2023-01-27T18:50:31.735Z,100978.69
2023-01-27T18:53:00.384Z,100987.28
2023-01-27T18:55:30.513Z,100989.78
2023-01-27T18:57:59.596Z,100987.28
2023-01-27T19:00:42.107Z,100992.53
2023-01-27T19:03:18.095Z,100989.59
2023-01-27T19:05:46.895Z,100990.75
2023-01-27T19:08:19.925Z,100996.59
2023-01-27T19:10:48.607Z,100992.25
2023-01-27T19:13:19.249Z,100990.00
2023-01-27T19:15:53.148Z,100995.31
2023-01-27T19:18:21.206Z,101001.56
2023-01-27T19:20:49.110Z,100994.41
2023-01-27T19:23:18.612Z,100992.66
2023-01-27T19:25:48.424Z,100997.38
2023-01-27T19:28:38.106Z,101003.25
2023-01-27T19:31:07.552Z,101002.50
2023-01-27T19:33:37.332Z,101004.16
2023-01-27T19:36:25.367Z,101007.88
2023-01-27T19:39:01.470Z,101005.16
2023-01-27T19:41:29.264Z,101012.72
2023-01-27T19:43:57.406Z,101005.22
2023-01-27T19:46:25.290Z,101018.97
2023-01-27T19:48:53.100Z,101016.53
2023-01-27T19:51:21.386Z,101023.81
2023-01-27T19:53:48.936Z,101019.78
2023-01-27T19:56:20.101Z,101020.63
2023-01-27T19:58:51.855Z,101024.78
2023-01-27T20:01:20.865Z,101028.63
2023-01-27T20:03:49.879Z,101024.13
2023-01-27T20:06:26.990Z,101031.13
2023-01-27T20:08:59.057Z,101030.06
2023-01-27T20:11:42.003Z,101041.44
2023-01-27T20:14:14.852Z,101037.22
2023-01-27T20:16:43.616Z,101044.31
2023-01-27T20:19:15.241Z,101044.56
2023-01-27T20:21:43.935Z,101040.56
2023-01-27T20:24:19.079Z,101044.25
2023-01-27T20:26:47.127Z,101045.47
2023-01-27T20:29:14.847Z,101045.84
2023-01-27T20:31:43.606Z,101050.28
2023-01-27T20:34:13.104Z,101048.59
2023-01-27T20:36:40.857Z,101063.22
2023-01-27T20:39:08.480Z,101061.72
2023-01-27T20:41:35.985Z,101058.94
2023-01-27T20:44:03.876Z,101064.41
2023-01-27T20:46:31.993Z,101069.13
2023-01-27T20:48:59.683Z,101073.25
2023-01-27T20:51:27.603Z,101060.81
2023-01-27T20:53:55.291Z,101073.09
2023-01-27T20:56:23.796Z,101069.47
2023-01-27T20:58:51.470Z,101066.88
2023-01-27T21:01:22.473Z,101069.75
2023-01-27T21:03:51.416Z,101073.91
2023-01-27T21:06:20.296Z,101070.41
2023-01-27T21:08:49.257Z,101075.56
2023-01-27T21:11:19.656Z,101074.72
2023-01-27T21:13:48.467Z,101070.38
2023-01-27T21:16:16.216Z,101072.63
2023-01-27T21:18:44.226Z,101063.66
2023-01-27T21:21:27.557Z,101073.38
2023-01-27T21:23:56.011Z,101079.66
2023-01-27T21:26:24.718Z,101074.72
2023-01-27T21:28:52.862Z,101080.75
2023-01-27T21:31:22.335Z,101075.28
2023-01-27T21:33:50.728Z,101077.91
2023-01-27T21:36:19.432Z,101084.38
2023-01-27T21:38:50.331Z,101081.38
2023-01-27T21:41:45.272Z,101081.69
2023-01-27T21:44:51.670Z,101081.34
2023-01-27T21:47:19.531Z,101091.09
2023-01-27T21:50:04.400Z,101094.88
2023-01-27T21:52:39.534Z,101085.97
2023-01-27T21:55:12.643Z,101082.91
2023-01-27T21:57:40.907Z,101081.44
2023-01-27T22:00:10.876Z,101091.53
2023-01-27T22:02:43.398Z,101085.41
2023-01-27T22:05:12.774Z,101084.03
2023-01-27T22:07:42.116Z,101087.78
2023-01-27T22:10:18.691Z,101088.22
2023-01-27T22:12:47.547Z,101087.38
2023-01-27T22:15:16.953Z,101085.25
2023-01-27T22:17:44.887Z,101089.84
2023-01-27T22:20:16.787Z,101088.91
2023-01-27T22:22:45.876Z,101089.34
2023-01-27T22:25:16.145Z,101093.66
2023-01-27T22:27:44.702Z,101091.16
2023-01-27T22:30:15.178Z,101088.63
2023-01-27T22:32:43.519Z,101094.66
2023-01-27T22:35:14.143Z,101089.28
2023-01-27T22:37:42.426Z,101088.16
2023-01-27T22:40:11.816Z,101088.53
2023-01-27T22:42:42.401Z,101090.47
2023-01-27T22:45:11.009Z,101100.44
2023-01-27T22:47:39.075Z,101102.19
2023-01-27T22:50:07.428Z,101104.25
2023-01-27T22:52:39.386Z,101101.97
2023-01-27T22:55:10.147Z,101112.03
2023-01-27T22:57:37.773Z,101104.75
2023-01-27T23:00:07.206Z,101104.19
2023-01-27T23:02:35.911Z,101109.38
2023-01-27T23:05:04.127Z,101115.19
2023-01-27T23:07:32.172Z,101112.56
2023-01-27T23:09:59.890Z,101097.28
2023-01-27T23:12:27.980Z,101095.00
2023-01-27T23:14:55.959Z,101088.28
2023-01-27T23:17:23.842Z,101090.78
2023-01-27T23:19:51.779Z,101088.50
2023-01-27T23:22:19.805Z,101088.88
2023-01-27T23:24:47.805Z,101093.22
2023-01-27T23:27:15.781Z,101083.84
2023-01-27T23:29:43.349Z,101083.59
2023-01-27T23:32:10.868Z,101089.88
2023-01-27T23:34:39.107Z,101087.19
2023-01-27T23:37:06.693Z,101091.72
2023-01-27T23:39:34.653Z,101090.66
2023-01-27T23:42:02.635Z,101092.22
2023-01-27T23:44:30.211Z,101097.03
2023-01-27T23:46:57.883Z,101091.94
2023-01-27T23:49:26.045Z,101089.16
2023-01-27T23:51:53.773Z,101098.03
2023-01-27T23:54:21.396Z,101098.50
2023-01-27T23:56:48.932Z,101103.47
2023-01-27T23:59:16.466Z,101101.88
